Flight Track Log - Related Links

Times and Time Zones

All times are in EDT time to prevent confusion due to time zone crossing. See the UAL3740 flight status page for this flight to view local times or setup timezone preferences in your user account.

Time Position Orientation Groundspeed Altitude Reporting Facility
EDT Latitude Longitude Course Direction KTS MPH feet Rate Location/Type
Sun 08:33:24 AM 38.9667 -77.4333 345° North 160 184 1,800  Level Potomac TRACON
Sun 08:34:24 AM 39.0167 -77.4500 345° North 218 251 4,300 2,600 Climbing Potomac TRACON
Sun 08:35:24 AM 39.0833 -77.4500 360° North 256 295 7,000 2,750 Climbing Potomac TRACON
Sun 08:36:24 AM 39.1500 -77.4000 30° Northeast 287 330 9,800 1,650 Climbing Potomac TRACON
Sun 08:37:24 AM 39.1500 -77.2833 90° East 353 406 10,300 1,653 Climbing Potomac TRACON
Sun 08:39:40 AM 39.0864 -77.0036 106° East 372 428 15,200 2,173 Climbing Washington Center
Sun 08:40:40 AM 39.0983 -76.8647 84° East 372 428 17,400 1,750 Climbing Washington Center
Sun 08:41:40 AM 39.1103 -76.7231 84° East 384 442 18,700 1,600 Climbing Washington Center
Sun 08:42:40 AM 39.1219 -76.5761 84° East 399 459 20,600 2,000 Climbing Washington Center
Sun 08:43:40 AM 39.1336 -76.4239 84° East 412 474 22,700 1,200 Climbing Washington Center
Sun 08:44:40 AM 39.1450 -76.2661 85° East 424 488 23,000 650 Climbing Washington Center
Sun 08:45:40 AM 39.2081 -76.1247 60° Northeast 429 494 24,000 1,100 Climbing Washington Center
Sun 08:46:40 AM 39.2900 -75.9939 51° Northeast 442 509 25,200 1,250 Climbing Washington Center
Sun 08:47:40 AM 39.3758 -75.8600 50° Northeast 468 539 26,500 1,250 Climbing Washington Center
Sun 08:48:40 AM 39.4592 -75.7206 52° Northeast 479 551 27,700 1,150 Climbing Washington Center
Sun 08:49:40 AM 39.5469 -75.5808 51° Northeast 486 559 28,800 1,176 Climbing Washington Center
Sun 08:52:04 AM 39.7622 -75.2322 51° Northeast 515 593 31,700 1,206 Climbing New York Center
Sun 08:53:04 AM 39.8469 -75.0861 53° Northeast 509 586 32,900 645 Climbing New York Center
Sun 08:54:05 AM 39.9356 -74.9400 52° Northeast 516 594 33,000 50 Climbing New York Center
Sun 08:55:03 AM 40.0156 -74.8011 53° Northeast 521 600 33,000  Level New York Center
Sun 08:56:04 AM 40.0908 -74.6103 63° Northeast 514 592 33,000 -692 Level New York Center
Sun 08:57:39 AM 40.1964 -74.3228 64° Northeast 547 629 31,200 -1,161 Descending Boston Center
Sun 08:58:39 AM 40.2639 -74.1450 64° Northeast 547 629 30,000 -1,045 Descending Boston Center
Sun 08:59:51 AM 40.3311 -73.9700 63° Northeast 542 624 28,900 -1,136 Descending Boston Center
Sun 09:00:51 AM 40.4067 -73.7592 65° Northeast 537 618 27,500 -934 Descending Boston Center
Sun 09:01:53 AM 40.4669 -73.5831 66° East 531 611 27,000 -250 Descending Boston Center
Sun 09:02:51 AM 40.5289 -73.4119 64° Northeast 520 598 27,000  Level Boston Center
Sun 09:03:51 AM 40.5928 -73.2353 64° Northeast 520 598 27,000 -750 Level Boston Center
Sun 09:04:51 AM 40.6544 -73.0583 65° Northeast 520 598 25,500 -1,750 Descending Boston Center
Sun 09:05:51 AM 40.7178 -72.8864 64° Northeast 520 598 23,500 -2,000 Descending Boston Center
Sun 09:06:51 AM 40.7786 -72.7197 64° Northeast 507 583 21,500 -2,150 Descending Boston Center
Sun 09:07:51 AM 40.8331 -72.5636 65° Northeast 487 560 19,200 -1,900 Descending Boston Center
Sun 09:08:51 AM 40.8811 -72.4181 66° East 479 551 17,700 -1,900 Descending Boston Center
Sun 09:09:51 AM 40.9331 -72.2697 65° Northeast 456 525 15,400 -2,543 Descending Boston Center
Sun 09:10:23 AM 40.9642 -72.1817 65° Northeast 462 532 13,800 -2,400 Descending Boston Center
Sun 09:10:51 AM 40.9850 -72.1183 66° East 445 512 13,000 -2,262 Descending Boston Center
Sun 09:11:24 AM 41.0158 -72.0358 64° Northeast 444 511 11,500 -1,900 Descending Boston Center
Sun 09:11:51 AM 41.0322 -71.9722 71° East 440 506 11,100 -492 Descending Boston Center
Sun 09:12:25 AM 41.0675 -71.8978 58° Northeast 411 473 11,000  Descending Boston Center
Sun 09:12:51 AM 41.0983 -71.8533 47° Northeast 412 474 11,100 -197 Climbing Boston Center
Sun 09:13:26 AM 41.1419 -71.7842 50° Northeast 370 426 10,800 -600 Descending Boston Center
Sun 09:13:51 AM 41.1644 -71.7425 54° Northeast 368 423 10,500 -1,200 Descending Boston Center
Sun 09:14:26 AM 41.1956 -71.6953 49° Northeast 316 364 9,600 -1,688 Descending Boston Center
Sun 09:15:27 AM 41.2661 -71.6614 20° North 275 316 7,800 -1,721 Descending Boston Center
Sun 09:16:28 AM 41.3408 -71.6411 12° North 267 307 6,100 -1,377 Descending Boston Center
Sun 09:17:29 AM 41.4075 -71.6208 13° North 256 295 5,000 -545 Descending Boston Center
Sun 09:18:29 AM 41.4803 -71.5978 13° North 251 289 5,000 -446 Level Boston Center
Sun 09:19:30 AM 41.5489 -71.5775 12° North 245 282 4,100 -984 Descending Boston Center
Sun 09:20:31 AM 41.5944 -71.5381 33° Northeast 195 224 3,000 -1,082 Descending Boston Center
Sun 09:21:32 AM 41.6358 -71.5014 34° Northeast 180 207 1,900 -885 Descending Boston Center
Sun 09:22:33 AM 41.6689 -71.4758 30° Northeast 139 160 1,200 -750 Descending Boston Center
Sun 09:23:40 AM 41.7061 -71.4419 34° Northeast 135 155 300 -806 Descending Boston Center

Login

Don't have an account? Register now (free) for customized features, flight alerts, and more!